Time;durP1;ratioP1;P1;durP2;ratioP2;P2;SDS_P1;SDS_P2;PMS_P1;PMS_P2;Temp;Humidity;BMP_temperature;BMP_pressure;BME280_temperature;BME280_humidity;BME280_pressure;Samples;Min_cycle;Max_cycle;Signal;HPM_P1;HPM_P2
2023/03/18 00:01:10;;;;;;;0.10;0.10;;;8.80;99.90;230.40;231737.00;;;;5050938;28;20202;-72
2023/03/18 00:03:39;;;;;;;0.10;0.10;;;8.80;99.90;230.40;231737.00;;;;5044841;28;20256;-73
2023/03/18 00:06:11;;;;;;;0.10;0.10;;;8.80;99.90;230.40;231737.00;;;;5045344;28;20198;-72
2023/03/18 00:08:41;;;;;;;0.10;0.10;;;8.80;99.90;230.40;231737.00;;;;5048521;28;20238;-73
2023/03/18 00:11:11;;;;;;;0.10;0.10;;;8.80;99.90;230.40;231737.00;;;;5043291;28;20202;-73
2023/03/18 00:13:41;;;;;;;0.10;0.10;;;8.90;99.90;230.40;231737.00;;;;5031762;28;20608;-73
2023/03/18 00:16:11;;;;;;;0.10;0.10;;;8.80;99.90;230.40;231737.00;;;;5041493;28;20593;-74
2023/03/18 00:18:41;;;;;;;0.10;0.10;;;8.80;99.90;230.40;231737.00;;;;5047535;28;20740;-75
2023/03/18 00:21:11;;;;;;;0.10;0.10;;;8.80;99.90;230.40;231737.00;;;;5045722;28;20198;-72
2023/03/18 00:23:39;;;;;;;0.10;0.10;;;8.80;99.90;230.40;231737.00;;;;5044290;28;20209;-74
2023/03/18 00:26:08;;;;;;;0.10;0.10;;;8.80;99.90;230.40;231737.00;;;;5044609;28;20198;-73
2023/03/18 00:28:39;;;;;;;0.10;0.10;;;8.80;99.90;230.40;231737.00;;;;5047141;28;20210;-74
2023/03/18 00:31:09;;;;;;;0.10;0.10;;;8.70;99.90;230.40;231737.00;;;;5051118;28;20197;-73
2023/03/18 00:33:42;;;;;;;0.10;0.10;;;8.80;99.90;230.40;231737.00;;;;5045391;28;20210;-72
2023/03/18 00:36:12;;;;;;;0.10;0.10;;;8.70;99.90;230.40;231737.00;;;;5033710;28;20246;-72
2023/03/18 00:38:41;;;;;;;0.10;0.10;;;8.70;99.90;230.40;231737.00;;;;5045980;28;20218;-73
2023/03/18 00:41:14;;;;;;;0.10;0.10;;;8.70;99.90;230.40;231737.00;;;;5047433;28;20269;-73
2023/03/18 00:43:51;;;;;;;0.10;0.10;;;8.70;99.90;230.40;231737.00;;;;5051192;28;20203;-73
2023/03/18 00:46:26;;;;;;;0.10;0.10;;;8.70;99.90;230.40;231737.00;;;;5050613;28;20256;-73
2023/03/18 00:48:59;;;;;;;0.10;0.10;;;8.70;99.90;230.40;231737.00;;;;5049668;28;20300;-73
2023/03/18 00:51:31;;;;;;;0.10;0.10;;;8.70;99.90;230.40;231737.00;;;;5053609;28;20191;-73
2023/03/18 00:54:03;;;;;;;0.10;0.10;;;8.60;99.90;230.40;231737.00;;;;5049390;28;20649;-74
2023/03/18 00:56:32;;;;;;;0.10;0.10;;;8.60;99.90;230.40;231737.00;;;;5045625;28;20202;-74
2023/03/18 00:59:01;;;;;;;0.10;0.10;;;8.60;99.90;230.40;231737.00;;;;5027379;28;20238;-75
2023/03/18 01:01:29;;;;;;;0.10;0.10;;;8.60;99.90;230.40;231737.00;;;;5048024;28;20244;-74
2023/03/18 01:04:01;;;;;;;0.10;0.10;;;8.60;99.90;230.40;231737.00;;;;5051593;28;20202;-73
2023/03/18 01:06:37;;;;;;;0.10;0.10;;;8.60;99.90;230.40;231737.00;;;;5048090;28;20187;-74
2023/03/18 01:09:10;;;;;;;0.10;0.10;;;8.60;99.90;230.40;231737.00;;;;5047908;28;20216;-73
2023/03/18 01:11:39;;;;;;;0.10;0.10;;;8.60;99.90;230.40;231737.00;;;;5045990;28;20654;-73
2023/03/18 01:14:07;;;;;;;0.10;0.10;;;8.50;99.90;230.40;231737.00;;;;5052973;28;20201;-74
2023/03/18 01:16:35;;;;;;;0.10;0.10;;;8.50;99.90;230.40;231737.00;;;;5051410;28;20198;-72
2023/03/18 01:19:05;;;;;;;0.10;0.10;;;8.50;99.90;230.40;231737.00;;;;5033929;28;20214;-72
2023/03/18 01:21:33;;;;;;;0.10;0.10;;;8.50;99.90;230.40;231737.00;;;;5047002;28;20273;-72
2023/03/18 01:24:03;;;;;;;0.10;0.10;;;8.50;99.90;230.40;231737.00;;;;5031213;28;20210;-72
2023/03/18 01:26:33;;;;;;;0.10;0.10;;;8.50;99.90;230.40;231737.00;;;;5051785;28;20214;-75
2023/03/18 01:29:02;;;;;;;0.10;0.10;;;8.40;99.90;230.40;231737.00;;;;5047434;28;20665;-73
2023/03/18 01:31:33;;;;;;;0.10;0.10;;;8.40;99.90;230.40;231737.00;;;;5045647;28;20202;-72
2023/03/18 01:34:08;;;;;;;0.10;0.10;;;8.40;99.90;230.40;231737.00;;;;5028530;28;20290;-72
2023/03/18 01:36:45;;;;;;;0.10;0.10;;;8.40;99.90;230.40;231737.00;;;;5035484;28;20217;-72
2023/03/18 01:39:14;;;;;;;0.10;0.10;;;8.40;99.90;230.40;231737.00;;;;5049358;28;20596;-72
2023/03/18 01:41:42;;;;;;;0.10;0.10;;;8.40;99.90;230.40;231737.00;;;;5033846;28;20227;-73
2023/03/18 01:44:16;;;;;;;0.10;0.10;;;8.40;99.90;230.40;231737.00;;;;5030382;28;20257;-72
2023/03/18 01:46:47;;;;;;;0.10;0.10;;;8.30;99.90;230.40;231737.00;;;;5032865;28;20252;-72
2023/03/18 01:49:21;;;;;;;0.10;0.10;;;8.30;99.90;230.40;231737.00;;;;5034083;28;20225;-73
2023/03/18 01:51:57;;;;;;;0.10;0.10;;;8.30;99.90;230.40;231737.00;;;;5044348;28;20198;-72
2023/03/18 01:54:29;;;;;;;0.10;0.10;;;8.30;99.90;230.40;231737.00;;;;5050645;28;20210;-72
2023/03/18 01:56:58;;;;;;;0.10;0.10;;;8.30;99.90;230.40;231737.00;;;;5049112;28;20198;-72
2023/03/18 01:59:31;;;;;;;0.10;0.10;;;8.20;99.90;230.40;231737.00;;;;5050060;28;20269;-72
2023/03/18 02:02:05;;;;;;;0.10;0.10;;;8.20;99.90;230.40;231737.00;;;;5028680;28;20207;-71
2023/03/18 02:04:40;;;;;;;0.10;0.10;;;8.20;99.90;230.40;231737.00;;;;5046757;28;20208;-72
2023/03/18 02:07:15;;;;;;;0.10;0.10;;;8.10;99.90;230.40;231737.00;;;;5035537;28;20595;-72
2023/03/18 02:09:44;;;;;;;0.10;0.10;;;8.20;99.90;230.40;231737.00;;;;5027261;28;20688;-72
2023/03/18 02:12:18;;;;;;;0.10;0.10;;;8.10;99.90;230.40;231737.00;;;;5030220;28;20665;-72
2023/03/18 02:14:46;;;;;;;0.10;0.10;;;8.10;99.90;230.40;231737.00;;;;5026816;28;20208;-72
2023/03/18 02:17:20;;;;;;;0.10;0.10;;;8.00;99.90;230.40;231737.00;;;;5049715;28;20199;-72
2023/03/18 02:20:07;;;;;;;0.10;0.10;;;8.00;99.90;230.40;231737.00;;;;5046957;28;20217;-72
2023/03/18 02:22:42;;;;;;;0.10;0.10;;;7.90;99.90;230.40;231737.00;;;;5028722;28;20213;-73
2023/03/18 02:25:31;;;;;;;0.10;0.10;;;7.90;99.90;230.40;231737.00;;;;5032526;28;20216;-73
2023/03/18 02:28:07;;;;;;;0.10;0.10;;;7.90;99.90;230.40;231737.00;;;;5048132;28;20236;-73
2023/03/18 02:30:41;;;;;;;0.10;0.10;;;7.80;99.90;230.40;231737.00;;;;5047969;28;20202;-72
2023/03/18 02:33:11;;;;;;;0.10;0.10;;;7.80;99.90;230.40;231737.00;;;;5024502;28;20301;-72
2023/03/18 02:35:44;;;;;;;0.10;0.10;;;7.80;99.90;230.40;231737.00;;;;5048922;28;20260;-72
2023/03/18 02:38:12;;;;;;;0.10;0.10;;;7.80;99.90;230.40;231737.00;;;;5044803;28;20273;-72
2023/03/18 02:40:42;;;;;;;0.10;0.10;;;7.80;99.90;230.40;231737.00;;;;5026129;28;20248;-72
2023/03/18 02:43:23;;;;;;;0.10;0.10;;;7.80;99.90;230.40;231737.00;;;;5028070;28;20257;-72
2023/03/18 02:46:12;;;;;;;0.10;0.10;;;7.80;99.90;230.40;231737.00;;;;5030867;28;20194;-74
2023/03/18 02:48:44;;;;;;;0.10;0.10;;;7.70;99.90;230.40;231737.00;;;;5029280;28;20568;-72
2023/03/18 02:51:17;;;;;;;0.10;0.10;;;7.70;99.90;230.40;231737.00;;;;5034115;28;20293;-71
2023/03/18 02:53:45;;;;;;;0.10;0.10;;;7.70;99.90;230.40;231737.00;;;;5046020;28;20194;-71
2023/03/18 02:56:14;;;;;;;0.10;0.10;;;7.70;99.90;230.40;231737.00;;;;5044285;28;20248;-71
2023/03/18 02:58:45;;;;;;;0.10;0.10;;;7.70;99.90;230.40;231737.00;;;;5040214;28;20329;-71
2023/03/18 03:01:15;;;;;;;0.10;0.10;;;7.60;99.90;230.40;231737.00;;;;5045321;28;20222;-72
2023/03/18 03:03:43;;;;;;;0.10;0.10;;;7.60;99.90;230.40;231737.00;;;;5045848;28;20305;-72
2023/03/18 03:06:13;;;;;;;0.10;0.10;;;7.60;99.90;230.40;231737.00;;;;5031642;28;20289;-72
2023/03/18 03:08:41;;;;;;;0.10;0.10;;;7.60;99.90;230.40;231737.00;;;;5030922;28;20713;-73
2023/03/18 03:11:10;;;;;;;0.10;0.10;;;7.60;99.90;230.40;231737.00;;;;5027991;28;20598;-72
2023/03/18 03:13:40;;;;;;;0.10;0.10;;;7.60;99.90;230.40;231737.00;;;;5031085;28;20661;-72
2023/03/18 03:16:13;;;;;;;0.10;0.10;;;7.60;99.90;230.40;231737.00;;;;5032402;28;20570;-72
2023/03/18 03:18:41;;;;;;;0.10;0.10;;;7.60;99.90;230.40;231737.00;;;;5047483;28;20226;-72
2023/03/18 03:21:12;;;;;;;0.10;0.10;;;7.60;99.90;230.40;231737.00;;;;5047613;28;20271;-72
2023/03/18 03:23:41;;;;;;;0.10;0.10;;;7.50;99.90;230.40;231737.00;;;;5041273;28;20190;-71
2023/03/18 03:26:10;;;;;;;0.10;0.10;;;7.50;99.90;230.40;231737.00;;;;5032693;28;20214;-73
2023/03/18 03:28:38;;;;;;;0.10;0.10;;;7.50;99.90;230.40;231737.00;;;;5043845;28;20655;-73
2023/03/18 03:31:07;;;;;;;0.10;0.10;;;7.50;99.90;230.40;231737.00;;;;5037284;28;20258;-72
2023/03/18 03:33:40;;;;;;;0.10;0.10;;;7.40;99.90;230.40;231737.00;;;;5029646;28;20225;-72
2023/03/18 03:36:10;;;;;;;0.10;0.10;;;7.40;99.90;230.40;231737.00;;;;5043942;28;20244;-72
2023/03/18 03:38:40;;;;;;;0.10;0.10;;;7.40;99.90;230.40;231737.00;;;;5043417;28;20269;-73
2023/03/18 03:41:10;;;;;;;0.10;0.10;;;7.40;99.90;230.40;231737.00;;;;5043042;28;20661;-72
2023/03/18 03:43:39;;;;;;;0.10;0.10;;;7.40;99.90;230.40;231737.00;;;;5047716;28;20668;-72
2023/03/18 03:46:09;;;;;;;0.10;0.10;;;7.30;99.90;230.40;231737.00;;;;5030487;28;20190;-72
2023/03/18 03:48:39;;;;;;;0.10;0.10;;;7.40;99.90;230.40;231737.00;;;;5032754;28;20228;-73
2023/03/18 03:51:11;;;;;;;0.10;0.10;;;7.30;99.90;230.40;231737.00;;;;5024338;28;20202;-72
2023/03/18 03:53:41;;;;;;;0.10;0.10;;;7.40;99.90;230.40;231737.00;;;;5038670;28;20209;-72
2023/03/18 03:56:10;;;;;;;0.10;0.10;;;7.30;99.90;230.40;231737.00;;;;5043194;28;20218;-72
2023/03/18 03:58:38;;;;;;;0.10;0.10;;;7.30;99.90;230.40;231737.00;;;;5047361;28;20637;-72
2023/03/18 04:01:07;;;;;;;0.10;0.10;;;7.30;99.90;230.40;231737.00;;;;5051024;28;20210;-74
2023/03/18 04:03:35;;;;;;;0.10;0.10;;;7.30;99.90;230.40;231737.00;;;;5049983;28;20202;-74
2023/03/18 04:06:08;;;;;;;0.10;0.10;;;7.20;99.90;230.40;231737.00;;;;5035529;28;20252;-75
2023/03/18 04:08:42;;;;;;;0.10;0.10;;;7.20;99.90;230.40;231737.00;;;;5035372;28;20226;-74
2023/03/18 04:11:11;;;;;;;0.10;0.10;;;7.20;99.90;230.40;231737.00;;;;5049403;28;20206;-72
2023/03/18 04:13:41;;;;;;;0.10;0.10;;;7.20;99.90;230.40;231737.00;;;;5026618;28;20194;-72
2023/03/18 04:16:09;;;;;;;0.10;0.10;;;7.20;99.90;230.40;231737.00;;;;5051720;28;20218;-71
2023/03/18 04:18:38;;;;;;;0.10;0.10;;;7.20;99.90;230.40;231737.00;;;;5053297;28;20309;-72
2023/03/18 04:21:09;;;;;;;0.10;0.10;;;7.10;99.90;230.40;231737.00;;;;5048039;28;20201;-75
2023/03/18 04:23:44;;;;;;;0.10;0.10;;;7.10;99.90;230.40;231737.00;;;;5049879;28;20198;-74
2023/03/18 04:26:12;;;;;;;0.10;0.10;;;7.10;99.90;230.40;231737.00;;;;5036300;28;20202;-71
2023/03/18 04:28:41;;;;;;;0.10;0.10;;;7.00;99.90;230.40;231737.00;;;;5033554;28;20437;-73
2023/03/18 04:31:12;;;;;;;0.10;0.10;;;7.00;99.90;230.40;231737.00;;;;5046627;28;20598;-72
2023/03/18 04:33:40;;;;;;;0.10;0.10;;;6.90;99.90;230.40;231737.00;;;;5046092;28;20245;-73
2023/03/18 04:36:10;;;;;;;0.10;0.10;;;6.90;99.90;230.40;231737.00;;;;5046695;28;20202;-72
2023/03/18 04:38:38;;;;;;;0.10;0.10;;;6.90;99.90;230.40;231737.00;;;;5033467;28;20592;-74
2023/03/18 04:41:07;;;;;;;0.10;0.10;;;6.90;99.90;230.40;231737.00;;;;5044506;28;20206;-72
2023/03/18 04:43:35;;;;;;;0.10;0.10;;;6.90;99.90;230.40;231737.00;;;;5048264;28;20199;-72
2023/03/18 04:46:05;;;;;;;0.10;0.10;;;6.90;99.90;230.40;231737.00;;;;5035141;28;20291;-72
2023/03/18 04:48:34;;;;;;;0.10;0.10;;;6.90;99.90;230.40;231737.00;;;;5036771;28;20226;-72
2023/03/18 04:51:07;;;;;;;0.10;0.10;;;6.90;99.90;230.40;231737.00;;;;5035069;28;20197;-72
2023/03/18 04:53:37;;;;;;;0.10;0.10;;;7.00;99.90;230.40;231737.00;;;;5045818;28;20202;-72
2023/03/18 04:56:07;;;;;;;0.10;0.10;;;6.90;99.90;230.40;231737.00;;;;5051147;28;20194;-72
2023/03/18 04:58:46;;;;;;;0.10;0.10;;;6.90;99.90;230.40;231737.00;;;;5048272;28;20644;-72
2023/03/18 05:01:19;;;;;;;0.10;0.10;;;6.90;99.90;230.40;231737.00;;;;5036355;28;20205;-72
2023/03/18 05:03:47;;;;;;;0.10;0.10;;;7.00;99.90;230.40;231737.00;;;;5032140;28;20682;-72
2023/03/18 05:06:23;;;;;;;0.10;0.10;;;7.00;99.90;230.40;231737.00;;;;5049433;28;20524;-72
2023/03/18 05:08:59;;;;;;;0.10;0.10;;;6.90;99.90;230.40;231737.00;;;;5031719;28;20589;-73
2023/03/18 05:11:32;;;;;;;0.10;0.10;;;6.90;99.90;230.40;231737.00;;;;5045959;28;20516;-72
2023/03/18 05:14:09;;;;;;;0.10;0.10;;;7.00;99.90;230.40;231737.00;;;;5034009;28;20202;-72
2023/03/18 05:16:42;;;;;;;0.10;0.10;;;7.00;99.90;230.40;231737.00;;;;5048053;28;20191;-72
2023/03/18 05:19:10;;;;;;;0.10;0.10;;;7.00;99.90;230.40;231737.00;;;;5034185;28;20759;-72
2023/03/18 05:21:46;;;;;;;0.10;0.10;;;7.00;99.90;230.40;231737.00;;;;5045317;28;20189;-72
2023/03/18 05:24:16;;;;;;;0.10;0.10;;;7.10;99.90;230.40;231737.00;;;;5033809;28;20289;-72
2023/03/18 05:26:44;;;;;;;0.10;0.10;;;7.10;99.90;230.40;231737.00;;;;5044156;28;20261;-72
2023/03/18 05:29:13;;;;;;;0.10;0.10;;;7.10;99.90;230.40;231737.00;;;;5047809;28;20218;-72
2023/03/18 05:31:48;;;;;;;0.10;0.10;;;7.10;99.90;230.40;231737.00;;;;5044610;28;20198;-72
2023/03/18 05:34:18;;;;;;;0.10;0.10;;;7.10;99.90;230.40;231737.00;;;;5032211;28;20195;-72
2023/03/18 05:36:47;;;;;;;0.10;0.10;;;7.00;99.90;230.40;231737.00;;;;5033955;28;20199;-73
2023/03/18 05:39:16;;;;;;;0.10;0.10;;;7.00;99.90;230.40;231737.00;;;;5047476;28;20233;-72
2023/03/18 05:41:45;;;;;;;0.10;0.10;;;7.00;99.90;230.40;231737.00;;;;5035471;28;20565;-72
2023/03/18 05:44:18;;;;;;;0.10;0.10;;;7.00;99.90;230.40;231737.00;;;;5037255;28;20202;-73
2023/03/18 05:46:50;;;;;;;0.10;0.10;;;7.00;99.90;230.40;231737.00;;;;5051711;28;20693;-72
2023/03/18 05:49:32;;;;;;;0.10;0.10;;;7.00;99.90;230.40;231737.00;;;;5054961;28;20228;-72
2023/03/18 05:52:16;;;;;;;0.10;0.10;;;7.00;99.90;230.40;231737.00;;;;5034918;28;20270;-72
2023/03/18 05:54:49;;;;;;;0.10;0.10;;;7.00;99.90;230.40;231737.00;;;;5052683;28;20198;-72
2023/03/18 05:57:27;;;;;;;0.10;0.10;;;7.00;99.90;230.40;231737.00;;;;5035207;28;20206;-72
2023/03/18 06:00:00;;;;;;;0.10;0.10;;;7.00;99.90;230.40;231737.00;;;;5047401;28;20221;-73
2023/03/18 06:02:31;;;;;;;0.10;0.10;;;7.00;99.90;230.40;231737.00;;;;5048428;28;20573;-73
2023/03/18 06:05:00;;;;;;;0.10;0.10;;;7.00;99.90;230.40;231737.00;;;;5049961;28;20636;-73
2023/03/18 06:07:28;;;;;;;0.10;0.10;;;7.00;99.90;230.40;231737.00;;;;5047293;28;20241;-74
2023/03/18 06:09:57;;;;;;;0.10;0.10;;;7.00;99.90;230.40;231737.00;;;;5028350;28;20214;-73
2023/03/18 06:12:26;;;;;;;0.10;0.10;;;7.00;99.90;230.40;231737.00;;;;5047118;28;20681;-72
2023/03/18 06:14:54;;;;;;;0.10;0.10;;;7.00;99.90;230.40;231737.00;;;;5029331;28;20198;-72
2023/03/18 06:17:23;;;;;;;0.10;0.10;;;7.00;99.90;230.40;231737.00;;;;5032626;28;20194;-72
2023/03/18 06:19:51;;;;;;;0.10;0.10;;;7.00;99.90;230.40;231737.00;;;;5048337;28;20222;-72
2023/03/18 06:22:19;;;;;;;0.10;0.10;;;7.00;99.90;230.40;231737.00;;;;5034355;28;20198;-72
2023/03/18 06:24:47;;;;;;;0.10;0.10;;;7.00;99.90;230.40;231737.00;;;;5032361;28;20202;-73
2023/03/18 06:27:19;;;;;;;0.10;0.10;;;7.00;99.90;230.40;231737.00;;;;5031688;28;20206;-73
2023/03/18 06:29:53;;;;;;;0.10;0.10;;;7.00;99.90;230.40;231737.00;;;;5032973;28;20249;-72
2023/03/18 06:32:22;;;;;;;0.10;0.10;;;7.10;99.90;230.40;231737.00;;;;5030934;28;20211;-72
2023/03/18 06:34:51;;;;;;;0.10;0.10;;;7.10;99.90;230.40;231737.00;;;;5027479;28;20216;-73
2023/03/18 06:37:19;;;;;;;0.10;0.10;;;7.10;99.90;230.40;231737.00;;;;5046064;28;20293;-72
2023/03/18 06:39:49;;;;;;;0.10;0.10;;;7.10;99.90;230.40;231737.00;;;;5031964;28;20705;-73
2023/03/18 06:42:19;;;;;;;0.10;0.10;;;7.10;99.90;230.40;231737.00;;;;5037849;28;20226;-73
2023/03/18 06:44:53;;;;;;;0.10;0.10;;;7.10;99.90;230.40;231737.00;;;;5044806;28;20216;-72
2023/03/18 06:47:28;;;;;;;0.10;0.10;;;7.10;99.90;230.40;231737.00;;;;5045085;28;20286;-73
2023/03/18 06:49:58;;;;;;;0.10;0.10;;;7.20;99.90;230.40;231737.00;;;;5050054;28;20566;-73
2023/03/18 06:52:33;;;;;;;0.10;0.10;;;7.10;99.90;230.40;231737.00;;;;5028783;28;20202;-74
2023/03/18 06:55:10;;;;;;;0.10;0.10;;;7.20;99.90;230.40;231737.00;;;;5024978;28;20264;-73
2023/03/18 06:57:42;;;;;;;0.10;0.10;;;7.30;99.90;230.40;231737.00;;;;5042905;28;20209;-72
2023/03/18 07:00:12;;;;;;;0.10;0.10;;;7.30;99.90;230.40;231737.00;;;;5046694;28;20211;-72
2023/03/18 07:02:42;;;;;;;0.10;0.10;;;7.40;99.90;230.40;231737.00;;;;5045871;28;20297;-72
2023/03/18 07:05:13;;;;;;;0.10;0.10;;;7.40;99.90;230.40;231737.00;;;;5030985;28;20195;-72
2023/03/18 07:07:42;;;;;;;0.10;0.10;;;7.40;99.90;230.40;231737.00;;;;5032340;28;20614;-73
2023/03/18 07:10:19;;;;;;;0.05;0.05;;;7.40;99.90;230.40;231737.00;;;;5043441;28;20272;-73
2023/03/18 07:12:49;;;;;;;0.10;0.10;;;7.40;99.90;230.40;231737.00;;;;5049626;28;20213;-73
2023/03/18 07:15:20;;;;;;;0.10;0.10;;;7.50;99.90;230.40;231737.00;;;;5045166;28;20290;-74
2023/03/18 07:17:52;;;;;;;0.10;0.10;;;7.50;99.90;230.40;231737.00;;;;5031006;28;20195;-75
2023/03/18 07:20:21;;;;;;;0.10;0.10;;;7.50;99.90;230.40;231737.00;;;;5048589;28;20194;-72
2023/03/18 07:22:50;;;;;;;0.10;0.10;;;7.60;99.90;230.40;231737.00;;;;5051924;28;20195;-73
2023/03/18 07:25:18;;;;;;;0.10;0.10;;;7.60;99.90;230.40;231737.00;;;;5033200;28;20217;-72
2023/03/18 07:27:51;;;;;;;0.10;0.10;;;7.60;99.90;230.40;231737.00;;;;5045672;28;20569;-73
2023/03/18 07:30:20;;;;;;;0.10;0.10;;;7.70;99.90;230.40;231737.00;;;;5044936;28;20261;-73
2023/03/18 07:32:48;;;;;;;0.10;0.10;;;7.70;99.90;230.40;231737.00;;;;5027802;28;20291;-73
2023/03/18 07:35:17;;;;;;;0.10;0.10;;;7.80;99.90;230.40;231737.00;;;;5021470;28;20285;-73
2023/03/18 07:37:45;;;;;;;0.10;0.10;;;7.90;99.90;230.40;231737.00;;;;5044527;28;20202;-74
2023/03/18 07:40:14;;;;;;;0.10;0.10;;;7.90;99.90;230.40;231737.00;;;;5044355;28;20198;-73
2023/03/18 07:42:42;;;;;;;0.10;0.10;;;7.90;99.90;230.40;231737.00;;;;5045995;28;20627;-73
2023/03/18 07:45:12;;;;;;;0.10;0.10;;;8.00;99.90;230.40;231737.00;;;;5049296;28;20665;-72
2023/03/18 07:47:40;;;;;;;0.10;0.10;;;8.10;99.90;230.40;231737.00;;;;5050064;28;20264;-73
2023/03/18 07:50:11;;;;;;;0.10;0.10;;;8.20;99.90;230.40;231737.00;;;;5045906;28;20297;-73
2023/03/18 07:52:39;;;;;;;0.10;0.10;;;8.30;99.90;230.40;231737.00;;;;5042998;28;20226;-74
2023/03/18 07:55:08;;;;;;;0.10;0.10;;;8.40;99.90;230.40;231737.00;;;;5047021;28;20194;-73
2023/03/18 07:57:36;;;;;;;0.10;0.10;;;8.50;99.90;230.40;231737.00;;;;5045364;28;20249;-73
2023/03/18 08:00:06;;;;;;;0.10;0.10;;;8.60;99.90;230.40;231737.00;;;;5039177;28;20190;-73
2023/03/18 08:02:42;;;;;;;0.10;0.10;;;8.70;99.90;230.40;231737.00;;;;5046542;28;20659;-73
2023/03/18 08:05:10;;;;;;;0.10;0.10;;;8.70;99.90;230.40;231737.00;;;;5043489;28;20202;-73
2023/03/18 08:07:38;;;;;;;0.10;0.10;;;8.80;99.90;230.40;231737.00;;;;5046689;28;20203;-73
2023/03/18 08:10:09;;;;;;;0.10;0.10;;;8.90;99.90;230.40;231737.00;;;;5043965;28;20309;-73
2023/03/18 08:12:37;;;;;;;0.10;0.10;;;8.90;99.90;230.40;231737.00;;;;5047790;28;20230;-73
2023/03/18 08:15:19;;;;;;;0.10;0.10;;;9.00;99.90;230.40;231737.00;;;;5049062;28;20218;-73
2023/03/18 08:17:49;;;;;;;0.10;0.10;;;9.10;99.90;230.40;231737.00;;;;5051450;28;20202;-72
2023/03/18 08:20:17;;;;;;;0.10;0.10;;;9.20;99.90;230.40;231737.00;;;;5046821;28;20644;-73
2023/03/18 08:22:45;;;;;;;0.10;0.10;;;9.30;99.90;230.40;231737.00;;;;5043534;28;20203;-73
2023/03/18 08:25:13;;;;;;;0.10;0.10;;;9.40;99.90;230.40;231737.00;;;;5050119;28;20245;-73
2023/03/18 08:27:42;;;;;;;0.10;0.10;;;9.40;99.90;230.40;231737.00;;;;5044872;28;20249;-73
2023/03/18 08:30:12;;;;;;;0.10;0.10;;;9.50;99.90;230.40;231737.00;;;;5049568;28;20709;-73
2023/03/18 08:32:40;;;;;;;0.10;0.10;;;9.60;99.90;230.40;231737.00;;;;5045646;28;20570;-73
2023/03/18 08:35:11;;;;;;;0.10;0.10;;;9.70;99.90;230.40;231737.00;;;;5044824;28;20686;-73
2023/03/18 08:37:39;;;;;;;0.10;0.10;;;9.80;99.90;230.40;231737.00;;;;5046126;28;20198;-73
2023/03/18 08:40:09;;;;;;;0.10;0.10;;;9.80;99.90;230.40;231737.00;;;;5042307;28;20600;-73
2023/03/18 08:42:37;;;;;;;0.10;0.10;;;9.90;99.90;230.40;231737.00;;;;5048029;28;20240;-73
2023/03/18 08:45:07;;;;;;;0.10;0.10;;;10.00;99.90;230.40;231737.00;;;;5049870;28;20203;-73
2023/03/18 08:47:35;;;;;;;0.10;0.10;;;10.10;99.90;230.40;231737.00;;;;5051027;28;20260;-73
2023/03/18 08:50:04;;;;;;;0.10;0.10;;;10.20;99.90;230.40;231737.00;;;;5051780;28;20269;-73
2023/03/18 08:52:33;;;;;;;0.10;0.10;;;10.20;99.90;230.40;231737.00;;;;5047549;28;20234;-74
2023/03/18 08:55:01;;;;;;;0.10;0.10;;;10.20;99.90;230.40;231737.00;;;;5049410;28;20194;-74
2023/03/18 08:57:30;;;;;;;0.10;0.10;;;10.20;99.90;230.40;231737.00;;;;5053663;28;20576;-74
2023/03/18 08:59:58;;;;;;;0.10;0.10;;;10.30;99.90;230.40;231737.00;;;;5050035;28;20227;-74
2023/03/18 09:02:27;;;;;;;0.10;0.10;;;10.30;99.90;230.40;231737.00;;;;5052248;28;20207;-73
2023/03/18 09:04:55;;;;;;;0.10;0.10;;;10.40;99.90;230.40;231737.00;;;;5054482;28;20240;-73
2023/03/18 09:07:23;;;;;;;0.10;0.10;;;10.40;99.90;230.40;231737.00;;;;5052044;28;20622;-73
2023/03/18 09:09:53;;;;;;;0.10;0.10;;;10.50;99.90;230.40;231737.00;;;;5050409;28;21349;-74
2023/03/18 09:12:21;;;;;;;0.10;0.10;;;10.50;99.90;230.40;231737.00;;;;5046722;28;20222;-73
2023/03/18 09:14:49;;;;;;;0.10;0.10;;;10.60;99.90;230.40;231737.00;;;;5047347;28;20212;-74
2023/03/18 09:17:17;;;;;;;0.10;0.10;;;10.70;99.90;230.40;231737.00;;;;5047366;28;20221;-74
2023/03/18 09:19:45;;;;;;;0.10;0.10;;;10.80;99.90;230.40;231737.00;;;;5048099;28;20268;-73
2023/03/18 09:22:13;;;;;;;0.10;0.10;;;10.80;99.90;230.40;231737.00;;;;5050512;28;20740;-74
2023/03/18 09:24:41;;;;;;;0.10;0.10;;;10.90;99.90;230.40;231737.00;;;;5050627;28;20210;-73
2023/03/18 09:27:11;;;;;;;0.10;0.10;;;11.00;99.90;230.40;231737.00;;;;5054805;28;20244;-73
2023/03/18 09:29:39;;;;;;;0.10;0.10;;;11.00;99.90;230.40;231737.00;;;;5043586;28;20225;-73
2023/03/18 09:32:08;;;;;;;0.10;0.10;;;11.00;99.90;230.40;231737.00;;;;5047921;28;20309;-74
2023/03/18 09:34:36;;;;;;;0.10;0.10;;;11.10;99.90;230.40;231737.00;;;;5042898;28;20254;-73
2023/03/18 09:37:04;;;;;;;0.10;0.10;;;11.10;99.90;230.40;231737.00;;;;5047955;28;20313;-73
2023/03/18 09:39:32;;;;;;;0.10;0.10;;;11.10;99.90;230.40;231737.00;;;;5046644;28;20693;-73
2023/03/18 09:42:36;;;;;;;0.10;0.10;;;11.10;99.90;230.40;231737.00;;;;5052468;28;20202;-73
2023/03/18 09:45:16;;;;;;;0.10;0.10;;;11.20;99.90;230.40;231737.00;;;;5046012;28;20287;-77
2023/03/18 09:48:35;;;;;;;0.05;0.05;;;11.30;99.90;230.40;231737.00;;;;5051408;28;20206;-74
2023/03/18 09:51:16;;;;;;;0.10;0.10;;;11.40;99.90;230.40;231737.00;;;;5047783;28;20248;-75
2023/03/18 09:53:52;;;;;;;0.10;0.10;;;11.50;99.90;230.40;231737.00;;;;5046413;28;20206;-74
2023/03/18 09:56:26;;;;;;;0.10;0.10;;;11.60;99.90;230.40;231737.00;;;;5047121;28;20198;-73
2023/03/18 09:59:02;;;;;;;0.10;0.10;;;11.80;99.90;230.40;231737.00;;;;5047649;28;20234;-74
2023/03/18 10:01:37;;;;;;;0.00;0.00;;;11.80;99.90;230.40;231737.00;;;;5052896;28;20225;-73
2023/03/18 10:04:13;;;;;;;0.10;0.10;;;11.80;99.90;230.40;231737.00;;;;5043181;28;20198;-74
2023/03/18 10:06:45;;;;;;;0.10;0.10;;;11.90;99.90;230.40;231737.00;;;;5051694;28;20254;-73
2023/03/18 10:09:21;;;;;;;0.10;0.10;;;11.90;99.90;230.40;231737.00;;;;5048974;28;20218;-75
2023/03/18 10:11:53;;;;;;;0.00;0.00;;;12.00;99.90;230.40;231737.00;;;;5051689;28;20827;-73
2023/03/18 10:14:37;;;;;;;0.10;0.10;;;12.10;99.90;230.40;231737.00;;;;5049815;28;20659;-73
2023/03/18 10:17:18;;;;;;;0.10;0.10;;;12.20;99.90;230.40;231737.00;;;;5050146;28;20255;-73
2023/03/18 10:19:51;;;;;;;0.10;0.10;;;12.30;99.90;230.40;231737.00;;;;5048837;28;20273;-75
2023/03/18 10:22:49;;;;;;;0.00;0.00;;;12.40;99.90;230.40;231737.00;;;;5051427;28;20201;-73
2023/03/18 10:25:27;;;;;;;0.10;0.10;;;12.60;99.90;230.40;231737.00;;;;5044127;28;20253;-73
2023/03/18 10:28:16;;;;;;;0.10;0.10;;;12.70;99.90;230.40;231737.00;;;;5040721;28;20225;-74
2023/03/18 10:31:00;;;;;;;0.10;0.10;;;12.80;99.90;230.40;231737.00;;;;5049677;28;20551;-73
2023/03/18 10:33:42;;;;;;;0.08;0.08;;;13.00;99.90;230.40;231737.00;;;;5046231;28;20226;-74
2023/03/18 10:36:19;;;;;;;0.10;0.10;;;13.10;99.90;230.40;231737.00;;;;5051437;28;20194;-74
2023/03/18 10:38:50;;;;;;;0.10;0.10;;;13.20;99.90;230.40;231737.00;;;;5047781;28;20229;-73
2023/03/18 10:41:23;;;;;;;0.10;0.10;;;13.30;99.90;230.40;231737.00;;;;5044522;28;20249;-73
2023/03/18 10:43:56;;;;;;;0.00;0.00;;;13.50;99.90;230.40;231737.00;;;;5049386;28;20264;-73
2023/03/18 10:46:27;;;;;;;0.10;0.10;;;13.60;99.90;230.40;231737.00;;;;5045121;28;20232;-73
2023/03/18 10:49:01;;;;;;;0.00;0.00;;;13.70;99.90;230.40;231737.00;;;;5050585;28;20222;-74
2023/03/18 10:51:36;;;;;;;0.00;0.00;;;13.70;99.90;230.40;231737.00;;;;5044280;28;20232;-73
2023/03/18 10:54:12;;;;;;;0.00;0.00;;;13.80;99.90;230.40;231737.00;;;;5046217;28;20225;-73
2023/03/18 10:56:40;;;;;;;0.00;0.00;;;13.90;99.90;230.40;231737.00;;;;5051797;28;20249;-73
2023/03/18 10:59:16;;;;;;;0.10;0.10;;;14.20;99.90;230.40;231737.00;;;;5043682;28;20234;-73
2023/03/18 11:01:51;;;;;;;0.00;0.00;;;14.30;99.90;230.40;231737.00;;;;5046935;28;20206;-73
2023/03/18 11:04:22;;;;;;;0.10;0.10;;;14.60;99.90;230.40;231737.00;;;;5049108;28;20607;-73